sensor_id;sensor_type;location;lat;lon;timestamp;P1;durP1;ratioP1;P2;durP2;ratioP2
7444;SDS011;3764;48.126;11.594;2023-04-25T00:00:06;3.25;;;2.45;;
7444;SDS011;3764;48.126;11.594;2023-04-25T00:02:34;3.95;;;2.30;;
7444;SDS011;3764;48.126;11.594;2023-04-25T00:05:01;2.70;;;2.13;;
7444;SDS011;3764;48.126;11.594;2023-04-25T00:07:30;3.47;;;3.25;;
7444;SDS011;3764;48.126;11.594;2023-04-25T00:09:57;3.00;;;2.70;;
7444;SDS011;3764;48.126;11.594;2023-04-25T00:12:25;4.20;;;2.53;;
7444;SDS011;3764;48.126;11.594;2023-04-25T00:14:53;4.22;;;2.00;;
7444;SDS011;3764;48.126;11.594;2023-04-25T00:17:23;5.03;;;2.10;;
7444;SDS011;3764;48.126;11.594;2023-04-25T00:19:50;2.33;;;2.10;;
7444;SDS011;3764;48.126;11.594;2023-04-25T00:22:18;6.35;;;2.60;;
7444;SDS011;3764;48.126;11.594;2023-04-25T00:24:48;4.38;;;2.40;;
7444;SDS011;3764;48.126;11.594;2023-04-25T00:27:15;3.78;;;2.30;;
7444;SDS011;3764;48.126;11.594;2023-04-25T00:29:42;3.55;;;2.60;;
7444;SDS011;3764;48.126;11.594;2023-04-25T00:32:10;2.50;;;2.30;;
7444;SDS011;3764;48.126;11.594;2023-04-25T00:34:38;2.15;;;1.95;;
7444;SDS011;3764;48.126;11.594;2023-04-25T00:37:06;4.15;;;2.67;;
7444;SDS011;3764;48.126;11.594;2023-04-25T00:39:33;3.95;;;2.28;;
7444;SDS011;3764;48.126;11.594;2023-04-25T00:42:00;3.15;;;2.65;;
7444;SDS011;3764;48.126;11.594;2023-04-25T00:44:29;3.05;;;2.60;;
7444;SDS011;3764;48.126;11.594;2023-04-25T00:46:58;2.47;;;2.20;;
7444;SDS011;3764;48.126;11.594;2023-04-25T00:49:29;2.90;;;2.70;;
7444;SDS011;3764;48.126;11.594;2023-04-25T00:51:58;3.03;;;2.10;;
7444;SDS011;3764;48.126;11.594;2023-04-25T00:54:26;4.35;;;2.70;;
7444;SDS011;3764;48.126;11.594;2023-04-25T00:56:53;3.30;;;3.00;;
7444;SDS011;3764;48.126;11.594;2023-04-25T00:59:20;2.85;;;2.10;;
7444;SDS011;3764;48.126;11.594;2023-04-25T01:01:47;3.30;;;2.60;;
7444;SDS011;3764;48.126;11.594;2023-04-25T01:04:15;3.15;;;2.40;;
7444;SDS011;3764;48.126;11.594;2023-04-25T01:06:43;3.50;;;2.20;;
7444;SDS011;3764;48.126;11.594;2023-04-25T01:09:12;3.38;;;2.00;;
7444;SDS011;3764;48.126;11.594;2023-04-25T01:11:40;2.70;;;2.50;;
7444;SDS011;3764;48.126;11.594;2023-04-25T01:14:07;4.35;;;2.47;;
7444;SDS011;3764;48.126;11.594;2023-04-25T01:16:34;3.30;;;2.50;;
7444;SDS011;3764;48.126;11.594;2023-04-25T01:19:03;2.17;;;1.98;;
7444;SDS011;3764;48.126;11.594;2023-04-25T01:21:36;3.58;;;2.30;;
7444;SDS011;3764;48.126;11.594;2023-04-25T01:24:04;3.22;;;2.25;;
7444;SDS011;3764;48.126;11.594;2023-04-25T01:26:32;5.85;;;3.58;;
7444;SDS011;3764;48.126;11.594;2023-04-25T01:29:00;2.83;;;2.60;;
7444;SDS011;3764;48.126;11.594;2023-04-25T01:31:27;3.85;;;2.47;;
7444;SDS011;3764;48.126;11.594;2023-04-25T01:33:55;3.25;;;2.70;;
7444;SDS011;3764;48.126;11.594;2023-04-25T01:36:22;6.45;;;2.60;;
7444;SDS011;3764;48.126;11.594;2023-04-25T01:38:51;3.05;;;2.00;;
7444;SDS011;3764;48.126;11.594;2023-04-25T01:41:19;5.97;;;2.30;;
7444;SDS011;3764;48.126;11.594;2023-04-25T01:43:48;2.65;;;2.40;;
7444;SDS011;3764;48.126;11.594;2023-04-25T01:46:17;3.80;;;2.25;;
7444;SDS011;3764;48.126;11.594;2023-04-25T01:48:44;3.38;;;3.15;;
7444;SDS011;3764;48.126;11.594;2023-04-25T01:51:12;3.38;;;2.22;;
7444;SDS011;3764;48.126;11.594;2023-04-25T01:53:40;2.60;;;2.40;;
7444;SDS011;3764;48.126;11.594;2023-04-25T01:56:10;2.78;;;2.30;;
7444;SDS011;3764;48.126;11.594;2023-04-25T01:58:37;2.80;;;2.60;;
7444;SDS011;3764;48.126;11.594;2023-04-25T02:01:04;2.40;;;2.10;;
7444;SDS011;3764;48.126;11.594;2023-04-25T02:03:32;3.35;;;2.80;;
7444;SDS011;3764;48.126;11.594;2023-04-25T02:05:59;3.05;;;2.10;;
7444;SDS011;3764;48.126;11.594;2023-04-25T02:08:27;3.30;;;2.38;;
7444;SDS011;3764;48.126;11.594;2023-04-25T02:10:55;3.80;;;3.30;;
7444;SDS011;3764;48.126;11.594;2023-04-25T02:13:24;2.42;;;2.20;;
7444;SDS011;3764;48.126;11.594;2023-04-25T02:15:51;2.88;;;2.40;;
7444;SDS011;3764;48.126;11.594;2023-04-25T02:18:18;3.90;;;3.05;;
7444;SDS011;3764;48.126;11.594;2023-04-25T02:20:46;4.03;;;2.55;;
7444;SDS011;3764;48.126;11.594;2023-04-25T02:23:13;5.82;;;2.60;;
7444;SDS011;3764;48.126;11.594;2023-04-25T02:25:46;2.47;;;2.28;;
7444;SDS011;3764;48.126;11.594;2023-04-25T02:28:15;3.92;;;2.65;;
7444;SDS011;3764;48.126;11.594;2023-04-25T02:30:44;3.85;;;2.95;;
7444;SDS011;3764;48.126;11.594;2023-04-25T02:33:11;4.18;;;2.75;;
7444;SDS011;3764;48.126;11.594;2023-04-25T02:35:38;5.05;;;2.80;;
7444;SDS011;3764;48.126;11.594;2023-04-25T02:38:07;3.83;;;2.20;;
7444;SDS011;3764;48.126;11.594;2023-04-25T02:40:35;4.47;;;2.95;;
7444;SDS011;3764;48.126;11.594;2023-04-25T02:43:02;3.13;;;2.25;;
7444;SDS011;3764;48.126;11.594;2023-04-25T02:45:33;4.03;;;2.70;;
7444;SDS011;3764;48.126;11.594;2023-04-25T02:48:05;3.42;;;2.83;;
7444;SDS011;3764;48.126;11.594;2023-04-25T02:50:32;2.50;;;2.30;;
7444;SDS011;3764;48.126;11.594;2023-04-25T02:53:00;2.60;;;2.38;;
7444;SDS011;3764;48.126;11.594;2023-04-25T02:55:27;2.60;;;2.15;;
7444;SDS011;3764;48.126;11.594;2023-04-25T02:57:54;2.80;;;2.60;;
7444;SDS011;3764;48.126;11.594;2023-04-25T03:00:21;3.58;;;2.95;;
7444;SDS011;3764;48.126;11.594;2023-04-25T03:02:49;5.00;;;2.67;;
7444;SDS011;3764;48.126;11.594;2023-04-25T03:05:18;6.90;;;2.80;;
7444;SDS011;3764;48.126;11.594;2023-04-25T03:07:48;3.28;;;2.63;;
7444;SDS011;3764;48.126;11.594;2023-04-25T03:10:16;4.18;;;2.42;;
7444;SDS011;3764;48.126;11.594;2023-04-25T03:12:43;2.40;;;2.20;;
7444;SDS011;3764;48.126;11.594;2023-04-25T03:15:10;3.03;;;2.72;;
7444;SDS011;3764;48.126;11.594;2023-04-25T03:17:37;3.97;;;2.70;;
7444;SDS011;3764;48.126;11.594;2023-04-25T03:20:05;3.47;;;2.75;;
7444;SDS011;3764;48.126;11.594;2023-04-25T03:22:35;2.58;;;2.10;;
7444;SDS011;3764;48.126;11.594;2023-04-25T03:25:02;3.88;;;2.42;;
7444;SDS011;3764;48.126;11.594;2023-04-25T03:27:30;3.65;;;2.85;;
7444;SDS011;3764;48.126;11.594;2023-04-25T03:29:57;3.88;;;2.40;;
7444;SDS011;3764;48.126;11.594;2023-04-25T03:32:24;3.85;;;2.90;;
7444;SDS011;3764;48.126;11.594;2023-04-25T03:34:54;6.43;;;2.55;;
7444;SDS011;3764;48.126;11.594;2023-04-25T03:37:22;3.15;;;2.15;;
7444;SDS011;3764;48.126;11.594;2023-04-25T03:39:50;5.25;;;2.78;;
7444;SDS011;3764;48.126;11.594;2023-04-25T03:42:17;4.50;;;2.60;;
7444;SDS011;3764;48.126;11.594;2023-04-25T03:44:45;5.80;;;1.95;;
7444;SDS011;3764;48.126;11.594;2023-04-25T03:47:12;3.47;;;2.63;;
7444;SDS011;3764;48.126;11.594;2023-04-25T03:49:39;2.58;;;2.10;;
7444;SDS011;3764;48.126;11.594;2023-04-25T03:52:06;1.70;;;1.60;;
7444;SDS011;3764;48.126;11.594;2023-04-25T03:54:33;2.55;;;1.92;;
7444;SDS011;3764;48.126;11.594;2023-04-25T03:57:02;3.90;;;2.40;;
7444;SDS011;3764;48.126;11.594;2023-04-25T03:59:29;5.20;;;2.65;;
7444;SDS011;3764;48.126;11.594;2023-04-25T04:02:01;3.72;;;2.17;;
7444;SDS011;3764;48.126;11.594;2023-04-25T04:04:29;2.60;;;1.73;;
7444;SDS011;3764;48.126;11.594;2023-04-25T04:06:56;2.20;;;2.00;;
7444;SDS011;3764;48.126;11.594;2023-04-25T04:09:23;4.20;;;1.98;;
7444;SDS011;3764;48.126;11.594;2023-04-25T04:11:50;3.72;;;1.90;;
7444;SDS011;3764;48.126;11.594;2023-04-25T04:14:19;2.35;;;1.95;;
7444;SDS011;3764;48.126;11.594;2023-04-25T04:16:46;2.97;;;1.52;;
7444;SDS011;3764;48.126;11.594;2023-04-25T04:19:14;3.97;;;1.55;;
7444;SDS011;3764;48.126;11.594;2023-04-25T04:21:41;2.33;;;1.85;;
7444;SDS011;3764;48.126;11.594;2023-04-25T04:24:08;2.60;;;1.85;;
7444;SDS011;3764;48.126;11.594;2023-04-25T04:26:38;1.70;;;1.60;;
7444;SDS011;3764;48.126;11.594;2023-04-25T04:29:05;2.33;;;2.13;;
7444;SDS011;3764;48.126;11.594;2023-04-25T04:31:35;4.75;;;1.85;;
7444;SDS011;3764;48.126;11.594;2023-04-25T04:34:02;2.50;;;2.03;;
7444;SDS011;3764;48.126;11.594;2023-04-25T04:36:30;3.60;;;1.60;;
7444;SDS011;3764;48.126;11.594;2023-04-25T04:38:57;2.72;;;1.90;;
7444;SDS011;3764;48.126;11.594;2023-04-25T04:41:24;5.65;;;2.03;;
7444;SDS011;3764;48.126;11.594;2023-04-25T04:43:51;2.20;;;1.73;;
7444;SDS011;3764;48.126;11.594;2023-04-25T04:46:21;3.60;;;2.55;;
7444;SDS011;3764;48.126;11.594;2023-04-25T04:48:52;2.15;;;1.70;;
7444;SDS011;3764;48.126;11.594;2023-04-25T04:51:21;3.10;;;2.30;;
7444;SDS011;3764;48.126;11.594;2023-04-25T04:53:48;7.65;;;1.95;;
7444;SDS011;3764;48.126;11.594;2023-04-25T04:56:15;2.17;;;1.92;;
7444;SDS011;3764;48.126;11.594;2023-04-25T04:58:43;3.15;;;1.80;;
7444;SDS011;3764;48.126;11.594;2023-04-25T05:01:10;5.82;;;3.75;;
7444;SDS011;3764;48.126;11.594;2023-04-25T05:03:37;3.20;;;1.98;;
7444;SDS011;3764;48.126;11.594;2023-04-25T05:06:06;2.00;;;1.63;;
7444;SDS011;3764;48.126;11.594;2023-04-25T05:08:34;2.97;;;1.80;;
7444;SDS011;3764;48.126;11.594;2023-04-25T05:11:01;2.45;;;2.20;;
7444;SDS011;3764;48.126;11.594;2023-04-25T05:13:28;3.65;;;2.40;;
7444;SDS011;3764;48.126;11.594;2023-04-25T05:15:55;3.40;;;2.22;;
7444;SDS011;3764;48.126;11.594;2023-04-25T05:18:22;3.15;;;2.35;;
7444;SDS011;3764;48.126;11.594;2023-04-25T05:20:50;3.10;;;2.72;;
7444;SDS011;3764;48.126;11.594;2023-04-25T05:23:18;6.22;;;2.63;;
7444;SDS011;3764;48.126;11.594;2023-04-25T05:25:45;2.95;;;2.33;;
7444;SDS011;3764;48.126;11.594;2023-04-25T05:28:13;5.53;;;2.40;;
7444;SDS011;3764;48.126;11.594;2023-04-25T05:30:40;4.20;;;2.42;;
7444;SDS011;3764;48.126;11.594;2023-04-25T05:33:09;2.55;;;2.25;;
7444;SDS011;3764;48.126;11.594;2023-04-25T05:35:36;10.38;;;2.70;;
7444;SDS011;3764;48.126;11.594;2023-04-25T05:38:03;3.72;;;2.20;;
7444;SDS011;3764;48.126;11.594;2023-04-25T05:40:32;3.53;;;2.50;;
7444;SDS011;3764;48.126;11.594;2023-04-25T05:42:59;5.43;;;3.40;;
7444;SDS011;3764;48.126;11.594;2023-04-25T05:45:26;3.20;;;2.30;;
7444;SDS011;3764;48.126;11.594;2023-04-25T05:47:53;5.45;;;2.40;;
7444;SDS011;3764;48.126;11.594;2023-04-25T05:50:21;3.25;;;2.65;;
7444;SDS011;3764;48.126;11.594;2023-04-25T05:52:48;3.70;;;2.28;;
7444;SDS011;3764;48.126;11.594;2023-04-25T05:55:16;3.92;;;3.45;;
7444;SDS011;3764;48.126;11.594;2023-04-25T05:57:44;6.88;;;3.20;;
7444;SDS011;3764;48.126;11.594;2023-04-25T06:00:12;3.65;;;2.53;;
7444;SDS011;3764;48.126;11.594;2023-04-25T06:02:41;3.25;;;2.60;;
7444;SDS011;3764;48.126;11.594;2023-04-25T06:05:08;3.65;;;2.45;;
7444;SDS011;3764;48.126;11.594;2023-04-25T06:07:35;6.40;;;2.42;;
7444;SDS011;3764;48.126;11.594;2023-04-25T06:10:03;1.77;;;1.60;;
7444;SDS011;3764;48.126;11.594;2023-04-25T06:12:31;8.48;;;5.93;;
7444;SDS011;3764;48.126;11.594;2023-04-25T06:15:00;3.50;;;2.60;;
7444;SDS011;3764;48.126;11.594;2023-04-25T06:17:27;2.88;;;2.58;;
7444;SDS011;3764;48.126;11.594;2023-04-25T06:19:54;2.55;;;1.98;;
7444;SDS011;3764;48.126;11.594;2023-04-25T06:22:21;3.17;;;2.17;;
7444;SDS011;3764;48.126;11.594;2023-04-25T06:24:48;3.40;;;2.05;;
7444;SDS011;3764;48.126;11.594;2023-04-25T06:27:16;2.28;;;1.98;;
7444;SDS011;3764;48.126;11.594;2023-04-25T06:29:43;2.72;;;2.53;;
7444;SDS011;3764;48.126;11.594;2023-04-25T06:32:11;2.97;;;2.50;;
7444;SDS011;3764;48.126;11.594;2023-04-25T06:34:38;2.13;;;1.92;;
7444;SDS011;3764;48.126;11.594;2023-04-25T06:37:06;3.67;;;2.75;;
7444;SDS011;3764;48.126;11.594;2023-04-25T06:39:33;5.35;;;2.50;;
7444;SDS011;3764;48.126;11.594;2023-04-25T06:42:00;7.70;;;5.40;;
7444;SDS011;3764;48.126;11.594;2023-04-25T06:44:27;3.72;;;3.25;;
7444;SDS011;3764;48.126;11.594;2023-04-25T06:46:54;4.38;;;3.10;;
7444;SDS011;3764;48.126;11.594;2023-04-25T06:49:23;4.30;;;3.28;;
7444;SDS011;3764;48.126;11.594;2023-04-25T06:51:50;2.72;;;2.53;;
7444;SDS011;3764;48.126;11.594;2023-04-25T06:54:17;8.43;;;3.58;;
7444;SDS011;3764;48.126;11.594;2023-04-25T06:56:44;5.38;;;3.50;;
7444;SDS011;3764;48.126;11.594;2023-04-25T06:59:12;3.78;;;3.25;;
7444;SDS011;3764;48.126;11.594;2023-04-25T07:01:39;5.63;;;3.78;;
7444;SDS011;3764;48.126;11.594;2023-04-25T07:04:06;4.97;;;2.83;;
7444;SDS011;3764;48.126;11.594;2023-04-25T07:06:34;7.07;;;3.97;;
7444;SDS011;3764;48.126;11.594;2023-04-25T07:09:07;6.32;;;3.88;;
7444;SDS011;3764;48.126;11.594;2023-04-25T07:11:35;7.07;;;4.57;;
7444;SDS011;3764;48.126;11.594;2023-04-25T07:14:03;7.53;;;4.28;;
7444;SDS011;3764;48.126;11.594;2023-04-25T07:16:30;8.32;;;3.60;;
7444;SDS011;3764;48.126;11.594;2023-04-25T07:19:06;6.43;;;3.13;;
7444;SDS011;3764;48.126;11.594;2023-04-25T07:21:49;4.50;;;3.00;;
7444;SDS011;3764;48.126;11.594;2023-04-25T07:24:16;4.32;;;2.67;;
7444;SDS011;3764;48.126;11.594;2023-04-25T07:26:43;3.58;;;2.97;;
7444;SDS011;3764;48.126;11.594;2023-04-25T07:29:10;5.85;;;5.32;;
7444;SDS011;3764;48.126;11.594;2023-04-25T07:31:37;5.63;;;3.50;;
7444;SDS011;3764;48.126;11.594;2023-04-25T07:34:05;4.28;;;3.58;;
7444;SDS011;3764;48.126;11.594;2023-04-25T07:36:32;3.10;;;2.80;;
7444;SDS011;3764;48.126;11.594;2023-04-25T07:39:01;4.45;;;3.60;;
7444;SDS011;3764;48.126;11.594;2023-04-25T07:41:28;6.25;;;3.75;;
7444;SDS011;3764;48.126;11.594;2023-04-25T07:43:55;4.35;;;3.85;;
7444;SDS011;3764;48.126;11.594;2023-04-25T07:46:22;7.38;;;3.67;;
7444;SDS011;3764;48.126;11.594;2023-04-25T07:48:50;4.50;;;2.92;;
7444;SDS011;3764;48.126;11.594;2023-04-25T07:51:17;4.68;;;3.45;;
7444;SDS011;3764;48.126;11.594;2023-04-25T07:53:45;5.25;;;3.50;;
7444;SDS011;3764;48.126;11.594;2023-04-25T07:56:13;3.83;;;3.10;;
7444;SDS011;3764;48.126;11.594;2023-04-25T07:58:40;3.97;;;3.33;;
7444;SDS011;3764;48.126;11.594;2023-04-25T08:01:07;7.82;;;3.85;;
7444;SDS011;3764;48.126;11.594;2023-04-25T08:03:34;5.45;;;4.63;;
7444;SDS011;3764;48.126;11.594;2023-04-25T08:06:01;4.18;;;2.78;;
7444;SDS011;3764;48.126;11.594;2023-04-25T08:08:28;4.80;;;3.58;;
7444;SDS011;3764;48.126;11.594;2023-04-25T08:10:55;3.53;;;3.22;;
7444;SDS011;3764;48.126;11.594;2023-04-25T08:13:24;4.22;;;3.72;;
7444;SDS011;3764;48.126;11.594;2023-04-25T08:15:51;7.45;;;3.67;;
7444;SDS011;3764;48.126;11.594;2023-04-25T08:18:18;7.47;;;4.65;;
7444;SDS011;3764;48.126;11.594;2023-04-25T08:20:45;5.65;;;3.90;;
7444;SDS011;3764;48.126;11.594;2023-04-25T08:23:12;4.25;;;2.90;;
7444;SDS011;3764;48.126;11.594;2023-04-25T08:25:39;5.53;;;4.13;;
7444;SDS011;3764;48.126;11.594;2023-04-25T08:28:06;5.03;;;3.80;;
7444;SDS011;3764;48.126;11.594;2023-04-25T08:30:35;6.00;;;3.08;;
7444;SDS011;3764;48.126;11.594;2023-04-25T08:33:03;3.50;;;3.05;;
7444;SDS011;3764;48.126;11.594;2023-04-25T08:35:30;3.42;;;3.08;;
7444;SDS011;3764;48.126;11.594;2023-04-25T08:37:58;2.60;;;2.40;;
7444;SDS011;3764;48.126;11.594;2023-04-25T08:40:26;7.13;;;3.20;;
7444;SDS011;3764;48.126;11.594;2023-04-25T08:42:55;6.25;;;3.10;;
7444;SDS011;3764;48.126;11.594;2023-04-25T08:45:24;4.50;;;3.15;;
7444;SDS011;3764;48.126;11.594;2023-04-25T08:47:54;6.03;;;3.05;;
7444;SDS011;3764;48.126;11.594;2023-04-25T08:50:24;4.30;;;2.95;;
7444;SDS011;3764;48.126;11.594;2023-04-25T08:52:52;3.60;;;2.60;;
7444;SDS011;3764;48.126;11.594;2023-04-25T08:55:21;3.15;;;2.65;;
7444;SDS011;3764;48.126;11.594;2023-04-25T08:57:48;4.03;;;2.53;;
7444;SDS011;3764;48.126;11.594;2023-04-25T09:00:16;3.40;;;2.20;;
7444;SDS011;3764;48.126;11.594;2023-04-25T09:02:45;3.47;;;2.47;;
7444;SDS011;3764;48.126;11.594;2023-04-25T09:05:14;2.35;;;2.08;;
7444;SDS011;3764;48.126;11.594;2023-04-25T09:07:42;5.72;;;2.38;;
7444;SDS011;3764;48.126;11.594;2023-04-25T09:10:09;2.75;;;2.40;;
7444;SDS011;3764;48.126;11.594;2023-04-25T09:12:36;6.32;;;2.47;;
7444;SDS011;3764;48.126;11.594;2023-04-25T09:15:04;2.15;;;1.60;;
7444;SDS011;3764;48.126;11.594;2023-04-25T09:17:32;3.95;;;2.03;;
7444;SDS011;3764;48.126;11.594;2023-04-25T09:20:06;2.00;;;1.75;;
7444;SDS011;3764;48.126;11.594;2023-04-25T09:22:36;2.28;;;1.90;;
7444;SDS011;3764;48.126;11.594;2023-04-25T09:25:07;3.05;;;2.60;;
7444;SDS011;3764;48.126;11.594;2023-04-25T09:27:35;2.40;;;2.20;;
7444;SDS011;3764;48.126;11.594;2023-04-25T09:30:03;5.53;;;2.83;;
7444;SDS011;3764;48.126;11.594;2023-04-25T09:32:30;3.10;;;2.80;;
7444;SDS011;3764;48.126;11.594;2023-04-25T09:34:57;3.38;;;2.58;;
7444;SDS011;3764;48.126;11.594;2023-04-25T09:37:25;4.57;;;2.05;;
7444;SDS011;3764;48.126;11.594;2023-04-25T09:39:55;5.65;;;2.33;;
7444;SDS011;3764;48.126;11.594;2023-04-25T09:42:24;4.35;;;2.33;;
7444;SDS011;3764;48.126;11.594;2023-04-25T09:44:54;2.45;;;2.13;;
7444;SDS011;3764;48.126;11.594;2023-04-25T09:47:22;3.95;;;2.40;;
7444;SDS011;3764;48.126;11.594;2023-04-25T09:49:51;2.00;;;1.85;;
7444;SDS011;3764;48.126;11.594;2023-04-25T09:52:20;1.90;;;1.67;;
7444;SDS011;3764;48.126;11.594;2023-04-25T09:54:48;3.20;;;1.80;;
7444;SDS011;3764;48.126;11.594;2023-04-25T09:57:18;2.25;;;2.05;;
7444;SDS011;3764;48.126;11.594;2023-04-25T09:59:47;1.95;;;1.73;;
7444;SDS011;3764;48.126;11.594;2023-04-25T10:02:15;3.22;;;2.05;;
7444;SDS011;3764;48.126;11.594;2023-04-25T10:04:44;3.35;;;2.05;;
7444;SDS011;3764;48.126;11.594;2023-04-25T10:07:16;1.90;;;1.63;;
7444;SDS011;3764;48.126;11.594;2023-04-25T10:09:46;3.35;;;1.77;;
7444;SDS011;3764;48.126;11.594;2023-04-25T10:12:15;2.10;;;1.42;;
7444;SDS011;3764;48.126;11.594;2023-04-25T10:14:45;4.85;;;2.38;;
7444;SDS011;3764;48.126;11.594;2023-04-25T10:17:12;3.17;;;1.70;;
7444;SDS011;3764;48.126;11.594;2023-04-25T10:19:40;2.25;;;1.80;;
7444;SDS011;3764;48.126;11.594;2023-04-25T10:22:08;3.25;;;1.83;;
7444;SDS011;3764;48.126;11.594;2023-04-25T10:24:40;5.85;;;1.88;;
7444;SDS011;3764;48.126;11.594;2023-04-25T10:27:08;2.33;;;2.13;;
7444;SDS011;3764;48.126;11.594;2023-04-25T10:29:36;3.88;;;2.47;;
7444;SDS011;3764;48.126;11.594;2023-04-25T10:32:04;2.03;;;1.83;;
7444;SDS011;3764;48.126;11.594;2023-04-25T10:34:38;3.85;;;2.22;;
7444;SDS011;3764;48.126;11.594;2023-04-25T10:37:08;3.50;;;2.55;;
7444;SDS011;3764;48.126;11.594;2023-04-25T10:39:36;3.03;;;2.67;;
7444;SDS011;3764;48.126;11.594;2023-04-25T10:42:05;4.43;;;2.90;;
7444;SDS011;3764;48.126;11.594;2023-04-25T10:44:33;2.53;;;2.20;;
7444;SDS011;3764;48.126;11.594;2023-04-25T10:47:02;3.80;;;2.45;;
7444;SDS011;3764;48.126;11.594;2023-04-25T10:49:34;3.13;;;2.63;;
7444;SDS011;3764;48.126;11.594;2023-04-25T10:52:13;3.30;;;2.95;;
7444;SDS011;3764;48.126;11.594;2023-04-25T10:54:48;3.28;;;1.55;;
7444;SDS011;3764;48.126;11.594;2023-04-25T10:57:27;2.33;;;1.90;;
7444;SDS011;3764;48.126;11.594;2023-04-25T10:59:58;2.85;;;1.77;;
7444;SDS011;3764;48.126;11.594;2023-04-25T11:02:27;3.40;;;2.70;;
7444;SDS011;3764;48.126;11.594;2023-04-25T11:04:55;3.45;;;2.80;;
7444;SDS011;3764;48.126;11.594;2023-04-25T11:07:25;4.50;;;1.85;;
7444;SDS011;3764;48.126;11.594;2023-04-25T11:10:01;5.57;;;2.72;;
7444;SDS011;3764;48.126;11.594;2023-04-25T11:12:29;2.58;;;2.25;;
7444;SDS011;3764;48.126;11.594;2023-04-25T11:15:01;2.53;;;2.33;;
7444;SDS011;3764;48.126;11.594;2023-04-25T11:17:30;4.13;;;2.10;;
7444;SDS011;3764;48.126;11.594;2023-04-25T11:19:58;1.67;;;1.50;;
7444;SDS011;3764;48.126;11.594;2023-04-25T11:22:26;2.00;;;1.30;;
7444;SDS011;3764;48.126;11.594;2023-04-25T11:24:55;3.72;;;1.50;;
7444;SDS011;3764;48.126;11.594;2023-04-25T11:27:22;3.95;;;2.70;;
7444;SDS011;3764;48.126;11.594;2023-04-25T11:29:50;3.58;;;2.05;;
7444;SDS011;3764;48.126;11.594;2023-04-25T11:32:17;2.50;;;1.50;;
7444;SDS011;3764;48.126;11.594;2023-04-25T11:34:46;3.85;;;1.90;;
7444;SDS011;3764;48.126;11.594;2023-04-25T11:37:13;2.72;;;1.67;;
7444;SDS011;3764;48.126;11.594;2023-04-25T11:39:44;2.75;;;1.33;;
7444;SDS011;3764;48.126;11.594;2023-04-25T11:42:12;4.43;;;2.00;;
7444;SDS011;3764;48.126;11.594;2023-04-25T11:44:39;2.65;;;1.50;;
7444;SDS011;3764;48.126;11.594;2023-04-25T11:47:07;1.60;;;1.50;;
7444;SDS011;3764;48.126;11.594;2023-04-25T11:49:34;2.55;;;1.40;;
7444;SDS011;3764;48.126;11.594;2023-04-25T11:52:05;2.80;;;1.70;;
7444;SDS011;3764;48.126;11.594;2023-04-25T11:54:35;1.98;;;1.83;;
7444;SDS011;3764;48.126;11.594;2023-04-25T11:57:02;4.15;;;2.20;;
7444;SDS011;3764;48.126;11.594;2023-04-25T11:59:30;3.35;;;2.80;;
7444;SDS011;3764;48.126;11.594;2023-04-25T12:01:57;2.38;;;1.60;;
7444;SDS011;3764;48.126;11.594;2023-04-25T12:04:29;2.80;;;1.90;;
7444;SDS011;3764;48.126;11.594;2023-04-25T12:06:58;2.85;;;1.70;;
7444;SDS011;3764;48.126;11.594;2023-04-25T12:09:31;3.55;;;2.40;;
7444;SDS011;3764;48.126;11.594;2023-04-25T12:12:00;3.90;;;1.90;;
7444;SDS011;3764;48.126;11.594;2023-04-25T12:14:29;1.63;;;1.40;;
7444;SDS011;3764;48.126;11.594;2023-04-25T12:16:57;1.98;;;1.20;;
7444;SDS011;3764;48.126;11.594;2023-04-25T12:19:26;3.13;;;1.58;;
7444;SDS011;3764;48.126;11.594;2023-04-25T12:21:58;1.85;;;1.50;;
7444;SDS011;3764;48.126;11.594;2023-04-25T12:24:28;2.90;;;1.40;;
7444;SDS011;3764;48.126;11.594;2023-04-25T12:27:00;2.55;;;1.33;;
7444;SDS011;3764;48.126;11.594;2023-04-25T12:29:29;2.00;;;1.40;;
7444;SDS011;3764;48.126;11.594;2023-04-25T12:31:57;2.45;;;1.30;;
7444;SDS011;3764;48.126;11.594;2023-04-25T12:34:24;5.72;;;1.85;;
7444;SDS011;3764;48.126;11.594;2023-04-25T12:36:52;1.90;;;1.20;;
7444;SDS011;3764;48.126;11.594;2023-04-25T12:39:19;2.40;;;1.20;;
7444;SDS011;3764;48.126;11.594;2023-04-25T12:41:48;2.47;;;1.17;;
7444;SDS011;3764;48.126;11.594;2023-04-25T12:44:17;1.30;;;1.15;;
7444;SDS011;3764;48.126;11.594;2023-04-25T12:46:44;1.65;;;1.23;;
7444;SDS011;3764;48.126;11.594;2023-04-25T12:49:11;1.40;;;1.20;;
7444;SDS011;3764;48.126;11.594;2023-04-25T12:51:39;1.38;;;1.02;;
7444;SDS011;3764;48.126;11.594;2023-04-25T12:54:06;1.52;;;0.90;;
7444;SDS011;3764;48.126;11.594;2023-04-25T12:56:34;1.33;;;1.13;;
7444;SDS011;3764;48.126;11.594;2023-04-25T12:59:02;1.40;;;1.25;;
7444;SDS011;3764;48.126;11.594;2023-04-25T13:01:30;2.50;;;1.50;;
7444;SDS011;3764;48.126;11.594;2023-04-25T13:03:58;1.58;;;1.05;;
7444;SDS011;3764;48.126;11.594;2023-04-25T13:06:25;2.22;;;1.10;;
7444;SDS011;3764;48.126;11.594;2023-04-25T13:08:52;1.30;;;0.90;;
7444;SDS011;3764;48.126;11.594;2023-04-25T13:11:20;1.10;;;0.90;;
7444;SDS011;3764;48.126;11.594;2023-04-25T13:13:47;1.30;;;1.10;;
7444;SDS011;3764;48.126;11.594;2023-04-25T13:16:14;1.45;;;1.17;;
7444;SDS011;3764;48.126;11.594;2023-04-25T13:18:42;2.45;;;1.10;;
7444;SDS011;3764;48.126;11.594;2023-04-25T13:21:09;1.63;;;1.35;;
7444;SDS011;3764;48.126;11.594;2023-04-25T13:23:37;1.80;;;1.17;;
7444;SDS011;3764;48.126;11.594;2023-04-25T13:26:05;2.03;;;1.33;;
7444;SDS011;3764;48.126;11.594;2023-04-25T13:28:32;4.13;;;3.30;;
7444;SDS011;3764;48.126;11.594;2023-04-25T13:30:59;4.57;;;1.60;;
7444;SDS011;3764;48.126;11.594;2023-04-25T13:33:26;3.15;;;1.23;;
7444;SDS011;3764;48.126;11.594;2023-04-25T13:35:55;1.50;;;1.20;;
7444;SDS011;3764;48.126;11.594;2023-04-25T13:38:22;4.00;;;1.10;;
7444;SDS011;3764;48.126;11.594;2023-04-25T13:40:52;3.20;;;1.30;;
7444;SDS011;3764;48.126;11.594;2023-04-25T13:43:19;2.63;;;1.70;;
7444;SDS011;3764;48.126;11.594;2023-04-25T13:45:47;1.45;;;1.35;;
7444;SDS011;3764;48.126;11.594;2023-04-25T13:48:14;1.60;;;1.20;;
7444;SDS011;3764;48.126;11.594;2023-04-25T13:50:41;2.10;;;1.30;;
7444;SDS011;3764;48.126;11.594;2023-04-25T13:53:10;1.45;;;1.10;;
7444;SDS011;3764;48.126;11.594;2023-04-25T13:55:37;2.58;;;1.40;;
7444;SDS011;3764;48.126;11.594;2023-04-25T13:58:04;1.40;;;1.25;;
7444;SDS011;3764;48.126;11.594;2023-04-25T14:00:33;1.80;;;0.90;;
7444;SDS011;3764;48.126;11.594;2023-04-25T14:03:03;1.20;;;0.80;;
7444;SDS011;3764;48.126;11.594;2023-04-25T14:05:32;1.60;;;1.20;;
7444;SDS011;3764;48.126;11.594;2023-04-25T14:08:03;1.58;;;1.20;;
7444;SDS011;3764;48.126;11.594;2023-04-25T14:10:36;1.90;;;1.25;;
7444;SDS011;3764;48.126;11.594;2023-04-25T14:13:03;2.80;;;1.25;;
7444;SDS011;3764;48.126;11.594;2023-04-25T14:15:32;2.53;;;2.03;;
7444;SDS011;3764;48.126;11.594;2023-04-25T14:17:59;1.67;;;1.30;;
7444;SDS011;3764;48.126;11.594;2023-04-25T14:20:27;3.83;;;1.38;;
7444;SDS011;3764;48.126;11.594;2023-04-25T14:22:55;1.77;;;1.27;;
7444;SDS011;3764;48.126;11.594;2023-04-25T14:25:23;1.20;;;1.02;;
7444;SDS011;3764;48.126;11.594;2023-04-25T14:27:52;2.55;;;1.92;;
7444;SDS011;3764;48.126;11.594;2023-04-25T14:30:19;1.50;;;1.10;;
7444;SDS011;3764;48.126;11.594;2023-04-25T14:32:48;1.33;;;1.17;;
7444;SDS011;3764;48.126;11.594;2023-04-25T14:35:15;2.10;;;1.13;;
7444;SDS011;3764;48.126;11.594;2023-04-25T14:37:42;1.70;;;1.30;;
7444;SDS011;3764;48.126;11.594;2023-04-25T14:40:10;1.50;;;1.20;;
7444;SDS011;3764;48.126;11.594;2023-04-25T14:42:38;1.50;;;1.40;;
7444;SDS011;3764;48.126;11.594;2023-04-25T14:45:07;1.67;;;1.05;;
7444;SDS011;3764;48.126;11.594;2023-04-25T14:47:35;1.30;;;1.02;;
7444;SDS011;3764;48.126;11.594;2023-04-25T14:50:03;1.20;;;0.95;;
7444;SDS011;3764;48.126;11.594;2023-04-25T14:52:30;2.50;;;2.15;;
7444;SDS011;3764;48.126;11.594;2023-04-25T14:54:57;1.50;;;1.33;;
7444;SDS011;3764;48.126;11.594;2023-04-25T14:57:27;2.00;;;1.60;;
7444;SDS011;3764;48.126;11.594;2023-04-25T14:59:54;4.07;;;2.97;;
7444;SDS011;3764;48.126;11.594;2023-04-25T15:02:23;2.00;;;1.50;;
7444;SDS011;3764;48.126;11.594;2023-04-25T15:04:50;1.70;;;1.40;;